<?xml version="1.0" encoding="UTF-8" standalone="no" ?>
<gpx xmlns="http://www.topografix.com/GPX/1/1" xmlns:xsi="http://www.w3.org/2001/XMLSchema-instance" xsi:schemaLocation="http://www.topografix.com/GPX/1/1 http://www.topografix.com/GPX/1/1/gpx.xsd" version="1.1" creator="VisuGPX - https://www.visugpx.com">
  <metadata>
    <name>12468430-Creully -env 26,2 km</name>
  </metadata>
  <trk>
    <name><![CDATA[12468430-Creully -env 26,2 km]]></name>
    <trkseg>
      <trkpt lat="49.28658" lon="-0.53853">
        <ele>29</ele>
        <time>2021-01-24T18:40:56Z</time>
      </trkpt>
      <trkpt lat="49.28609" lon="-0.53791">
        <ele>30</ele>
        <time>2021-01-24T18:42:21Z</time>
      </trkpt>
      <trkpt lat="49.28581" lon="-0.53808">
        <ele>30</ele>
        <time>2021-01-24T18:43:01Z</time>
      </trkpt>
      <trkpt lat="49.28511" lon="-0.53687">
        <ele>33</ele>
        <time>2021-01-24T18:45:22Z</time>
      </trkpt>
      <trkpt lat="49.28434" lon="-0.53508">
        <ele>33</ele>
        <time>2021-01-24T18:48:28Z</time>
      </trkpt>
      <trkpt lat="49.28375" lon="-0.53392">
        <ele>32</ele>
        <time>2021-01-24T18:50:36Z</time>
      </trkpt>
      <trkpt lat="49.28292" lon="-0.53212">
        <ele>29</ele>
        <time>2021-01-24T18:53:48Z</time>
      </trkpt>
      <trkpt lat="49.28249" lon="-0.53103">
        <ele>29</ele>
        <time>2021-01-24T18:55:39Z</time>
      </trkpt>
      <trkpt lat="49.28228" lon="-0.52946">
        <ele>25</ele>
        <time>2021-01-24T18:57:59Z</time>
      </trkpt>
      <trkpt lat="49.28222" lon="-0.52825">
        <ele>25</ele>
        <time>2021-01-24T18:59:44Z</time>
      </trkpt>
      <trkpt lat="49.28216" lon="-0.5273">
        <ele>25</ele>
        <time>2021-01-24T19:01:07Z</time>
      </trkpt>
      <trkpt lat="49.28262" lon="-0.52611">
        <ele>21</ele>
        <time>2021-01-24T19:03:08Z</time>
      </trkpt>
      <trkpt lat="49.28358" lon="-0.52452">
        <ele>17</ele>
        <time>2021-01-24T19:06:16Z</time>
      </trkpt>
      <trkpt lat="49.28431" lon="-0.5233">
        <ele>18</ele>
        <time>2021-01-24T19:08:41Z</time>
      </trkpt>
      <trkpt lat="49.28498" lon="-0.52266">
        <ele>18</ele>
        <time>2021-01-24T19:10:26Z</time>
      </trkpt>
      <trkpt lat="49.28633" lon="-0.52178">
        <ele>18</ele>
        <time>2021-01-24T19:13:42Z</time>
      </trkpt>
      <trkpt lat="49.28743" lon="-0.52105">
        <ele>16</ele>
        <time>2021-01-24T19:16:22Z</time>
      </trkpt>
      <trkpt lat="49.28788" lon="-0.5206">
        <ele>17</ele>
        <time>2021-01-24T19:17:33Z</time>
      </trkpt>
      <trkpt lat="49.2883" lon="-0.52008">
        <ele>18</ele>
        <time>2021-01-24T19:18:45Z</time>
      </trkpt>
      <trkpt lat="49.28894" lon="-0.51896">
        <ele>17</ele>
        <time>2021-01-24T19:20:55Z</time>
      </trkpt>
      <trkpt lat="49.28933" lon="-0.51742">
        <ele>19</ele>
        <time>2021-01-24T19:23:19Z</time>
      </trkpt>
      <trkpt lat="49.29092" lon="-0.51596">
        <ele>16</ele>
        <time>2021-01-24T19:27:26Z</time>
      </trkpt>
      <trkpt lat="49.29155" lon="-0.51446">
        <ele>12</ele>
        <time>2021-01-24T19:30:01Z</time>
      </trkpt>
      <trkpt lat="49.2919" lon="-0.51379">
        <ele>11</ele>
        <time>2021-01-24T19:31:16Z</time>
      </trkpt>
      <trkpt lat="49.29208" lon="-0.51351">
        <ele>10</ele>
        <time>2021-01-24T19:31:50Z</time>
      </trkpt>
      <trkpt lat="49.29259" lon="-0.51318">
        <ele>9</ele>
        <time>2021-01-24T19:33:04Z</time>
      </trkpt>
      <trkpt lat="49.29268" lon="-0.51297">
        <ele>9</ele>
        <time>2021-01-24T19:33:26Z</time>
      </trkpt>
      <trkpt lat="49.29263" lon="-0.51259">
        <ele>7</ele>
        <time>2021-01-24T19:34:00Z</time>
      </trkpt>
      <trkpt lat="49.29192" lon="-0.51182">
        <ele>11</ele>
        <time>2021-01-24T19:35:56Z</time>
      </trkpt>
      <trkpt lat="49.29111" lon="-0.51154">
        <ele>10</ele>
        <time>2021-01-24T19:37:47Z</time>
      </trkpt>
      <trkpt lat="49.29029" lon="-0.51184">
        <ele>12</ele>
        <time>2021-01-24T19:39:39Z</time>
      </trkpt>
      <trkpt lat="49.28995" lon="-0.51188">
        <ele>13</ele>
        <time>2021-01-24T19:40:25Z</time>
      </trkpt>
      <trkpt lat="49.28926" lon="-0.51208">
        <ele>13</ele>
        <time>2021-01-24T19:41:58Z</time>
      </trkpt>
      <trkpt lat="49.28814" lon="-0.51233">
        <ele>12</ele>
        <time>2021-01-24T19:44:29Z</time>
      </trkpt>
      <trkpt lat="49.28824" lon="-0.51171">
        <ele>10</ele>
        <time>2021-01-24T19:45:25Z</time>
      </trkpt>
      <trkpt lat="49.28841" lon="-0.51094">
        <ele>9</ele>
        <time>2021-01-24T19:46:36Z</time>
      </trkpt>
      <trkpt lat="49.28849" lon="-0.51006">
        <ele>10</ele>
        <time>2021-01-24T19:47:53Z</time>
      </trkpt>
      <trkpt lat="49.28834" lon="-0.5095">
        <ele>10</ele>
        <time>2021-01-24T19:48:46Z</time>
      </trkpt>
      <trkpt lat="49.28844" lon="-0.50834">
        <ele>10</ele>
        <time>2021-01-24T19:50:28Z</time>
      </trkpt>
      <trkpt lat="49.28838" lon="-0.50714">
        <ele>11</ele>
        <time>2021-01-24T19:52:12Z</time>
      </trkpt>
      <trkpt lat="49.2883" lon="-0.50583">
        <ele>17</ele>
        <time>2021-01-24T19:54:07Z</time>
      </trkpt>
      <trkpt lat="49.28883" lon="-0.50497">
        <ele>18</ele>
        <time>2021-01-24T19:55:50Z</time>
      </trkpt>
      <trkpt lat="49.28908" lon="-0.50459">
        <ele>17</ele>
        <time>2021-01-24T19:56:37Z</time>
      </trkpt>
      <trkpt lat="49.28938" lon="-0.50343">
        <ele>18</ele>
        <time>2021-01-24T19:58:25Z</time>
      </trkpt>
      <trkpt lat="49.28975" lon="-0.50073">
        <ele>19</ele>
        <time>2021-01-24T20:02:26Z</time>
      </trkpt>
      <trkpt lat="49.29008" lon="-0.49852">
        <ele>22</ele>
        <time>2021-01-24T20:05:43Z</time>
      </trkpt>
      <trkpt lat="49.29058" lon="-0.49592">
        <ele>17</ele>
        <time>2021-01-24T20:09:39Z</time>
      </trkpt>
      <trkpt lat="49.29059" lon="-0.49523">
        <ele>19</ele>
        <time>2021-01-24T20:10:39Z</time>
      </trkpt>
      <trkpt lat="49.29085" lon="-0.49482">
        <ele>15</ele>
        <time>2021-01-24T20:11:29Z</time>
      </trkpt>
      <trkpt lat="49.2912" lon="-0.49403">
        <ele>15</ele>
        <time>2021-01-24T20:12:52Z</time>
      </trkpt>
      <trkpt lat="49.29136" lon="-0.49362">
        <ele>14</ele>
        <time>2021-01-24T20:13:33Z</time>
      </trkpt>
      <trkpt lat="49.29142" lon="-0.49317">
        <ele>14</ele>
        <time>2021-01-24T20:14:13Z</time>
      </trkpt>
      <trkpt lat="49.29146" lon="-0.49176">
        <ele>13</ele>
        <time>2021-01-24T20:16:16Z</time>
      </trkpt>
      <trkpt lat="49.29128" lon="-0.4904">
        <ele>10</ele>
        <time>2021-01-24T20:18:17Z</time>
      </trkpt>
      <trkpt lat="49.29184" lon="-0.48998">
        <ele>6</ele>
        <time>2021-01-24T20:19:40Z</time>
      </trkpt>
      <trkpt lat="49.29213" lon="-0.48963">
        <ele>6</ele>
        <time>2021-01-24T20:20:29Z</time>
      </trkpt>
      <trkpt lat="49.29226" lon="-0.48916">
        <ele>6</ele>
        <time>2021-01-24T20:21:14Z</time>
      </trkpt>
      <trkpt lat="49.29232" lon="-0.48852">
        <ele>7</ele>
        <time>2021-01-24T20:22:10Z</time>
      </trkpt>
      <trkpt lat="49.29236" lon="-0.48772">
        <ele>9</ele>
        <time>2021-01-24T20:23:20Z</time>
      </trkpt>
      <trkpt lat="49.29244" lon="-0.48727">
        <ele>11</ele>
        <time>2021-01-24T20:24:01Z</time>
      </trkpt>
      <trkpt lat="49.29205" lon="-0.48704">
        <ele>15</ele>
        <time>2021-01-24T20:24:56Z</time>
      </trkpt>
      <trkpt lat="49.29195" lon="-0.48703">
        <ele>16</ele>
        <time>2021-01-24T20:25:10Z</time>
      </trkpt>
      <trkpt lat="49.29136" lon="-0.48674">
        <ele>21</ele>
        <time>2021-01-24T20:26:32Z</time>
      </trkpt>
      <trkpt lat="49.29104" lon="-0.48715">
        <ele>24</ele>
        <time>2021-01-24T20:27:28Z</time>
      </trkpt>
      <trkpt lat="49.29074" lon="-0.48761">
        <ele>26</ele>
        <time>2021-01-24T20:28:25Z</time>
      </trkpt>
      <trkpt lat="49.29054" lon="-0.48781">
        <ele>26</ele>
        <time>2021-01-24T20:28:57Z</time>
      </trkpt>
      <trkpt lat="49.29037" lon="-0.4881">
        <ele>26</ele>
        <time>2021-01-24T20:29:30Z</time>
      </trkpt>
      <trkpt lat="49.29029" lon="-0.48835">
        <ele>26</ele>
        <time>2021-01-24T20:29:55Z</time>
      </trkpt>
      <trkpt lat="49.29029" lon="-0.48892">
        <ele>22</ele>
        <time>2021-01-24T20:30:44Z</time>
      </trkpt>
      <trkpt lat="49.29013" lon="-0.48919">
        <ele>21</ele>
        <time>2021-01-24T20:31:16Z</time>
      </trkpt>
      <trkpt lat="49.28924" lon="-0.48977">
        <ele>17</ele>
        <time>2021-01-24T20:33:25Z</time>
      </trkpt>
      <trkpt lat="49.28911" lon="-0.49042">
        <ele>12</ele>
        <time>2021-01-24T20:34:24Z</time>
      </trkpt>
      <trkpt lat="49.28878" lon="-0.49064">
        <ele>10</ele>
        <time>2021-01-24T20:35:12Z</time>
      </trkpt>
      <trkpt lat="49.28856" lon="-0.49028">
        <ele>13</ele>
        <time>2021-01-24T20:35:55Z</time>
      </trkpt>
      <trkpt lat="49.28813" lon="-0.49004">
        <ele>16</ele>
        <time>2021-01-24T20:36:56Z</time>
      </trkpt>
      <trkpt lat="49.28778" lon="-0.48987">
        <ele>18</ele>
        <time>2021-01-24T20:37:45Z</time>
      </trkpt>
      <trkpt lat="49.28729" lon="-0.48987">
        <ele>18</ele>
        <time>2021-01-24T20:38:51Z</time>
      </trkpt>
      <trkpt lat="49.28694" lon="-0.48995">
        <ele>17</ele>
        <time>2021-01-24T20:39:38Z</time>
      </trkpt>
      <trkpt lat="49.28644" lon="-0.49025">
        <ele>17</ele>
        <time>2021-01-24T20:40:50Z</time>
      </trkpt>
      <trkpt lat="49.28593" lon="-0.49116">
        <ele>17</ele>
        <time>2021-01-24T20:42:34Z</time>
      </trkpt>
      <trkpt lat="49.28579" lon="-0.49161">
        <ele>17</ele>
        <time>2021-01-24T20:43:17Z</time>
      </trkpt>
      <trkpt lat="49.28553" lon="-0.49261">
        <ele>18</ele>
        <time>2021-01-24T20:44:51Z</time>
      </trkpt>
      <trkpt lat="49.28526" lon="-0.49358">
        <ele>17</ele>
        <time>2021-01-24T20:46:23Z</time>
      </trkpt>
      <trkpt lat="49.28492" lon="-0.49405">
        <ele>17</ele>
        <time>2021-01-24T20:47:24Z</time>
      </trkpt>
      <trkpt lat="49.28453" lon="-0.49444">
        <ele>18</ele>
        <time>2021-01-24T20:48:26Z</time>
      </trkpt>
      <trkpt lat="49.28403" lon="-0.49485">
        <ele>17</ele>
        <time>2021-01-24T20:49:42Z</time>
      </trkpt>
      <trkpt lat="49.28385" lon="-0.49521">
        <ele>16</ele>
        <time>2021-01-24T20:50:21Z</time>
      </trkpt>
      <trkpt lat="49.28364" lon="-0.49543">
        <ele>16</ele>
        <time>2021-01-24T20:50:55Z</time>
      </trkpt>
      <trkpt lat="49.28323" lon="-0.49562">
        <ele>18</ele>
        <time>2021-01-24T20:51:52Z</time>
      </trkpt>
      <trkpt lat="49.2829" lon="-0.49598">
        <ele>18</ele>
        <time>2021-01-24T20:52:46Z</time>
      </trkpt>
      <trkpt lat="49.28259" lon="-0.49624">
        <ele>18</ele>
        <time>2021-01-24T20:53:34Z</time>
      </trkpt>
      <trkpt lat="49.28222" lon="-0.49774">
        <ele>19</ele>
        <time>2021-01-24T20:55:53Z</time>
      </trkpt>
      <trkpt lat="49.28187" lon="-0.49854">
        <ele>19</ele>
        <time>2021-01-24T20:57:17Z</time>
      </trkpt>
      <trkpt lat="49.28158" lon="-0.49933">
        <ele>16</ele>
        <time>2021-01-24T20:58:36Z</time>
      </trkpt>
      <trkpt lat="49.28131" lon="-0.49963">
        <ele>17</ele>
        <time>2021-01-24T20:59:20Z</time>
      </trkpt>
      <trkpt lat="49.28108" lon="-0.49987">
        <ele>16</ele>
        <time>2021-01-24T20:59:58Z</time>
      </trkpt>
      <trkpt lat="49.28039" lon="-0.50004">
        <ele>16</ele>
        <time>2021-01-24T21:01:31Z</time>
      </trkpt>
      <trkpt lat="49.27979" lon="-0.50015">
        <ele>17</ele>
        <time>2021-01-24T21:02:51Z</time>
      </trkpt>
      <trkpt lat="49.27926" lon="-0.50021">
        <ele>16</ele>
        <time>2021-01-24T21:04:02Z</time>
      </trkpt>
      <trkpt lat="49.27844" lon="-0.5003">
        <ele>19</ele>
        <time>2021-01-24T21:05:52Z</time>
      </trkpt>
      <trkpt lat="49.27777" lon="-0.50032">
        <ele>21</ele>
        <time>2021-01-24T21:07:22Z</time>
      </trkpt>
      <trkpt lat="49.27727" lon="-0.50017">
        <ele>24</ele>
        <time>2021-01-24T21:08:30Z</time>
      </trkpt>
      <trkpt lat="49.27695" lon="-0.5">
        <ele>25</ele>
        <time>2021-01-24T21:09:15Z</time>
      </trkpt>
      <trkpt lat="49.27671" lon="-0.49997">
        <ele>25</ele>
        <time>2021-01-24T21:09:47Z</time>
      </trkpt>
      <trkpt lat="49.27633" lon="-0.50027">
        <ele>25</ele>
        <time>2021-01-24T21:10:44Z</time>
      </trkpt>
      <trkpt lat="49.27599" lon="-0.50083">
        <ele>24</ele>
        <time>2021-01-24T21:11:50Z</time>
      </trkpt>
      <trkpt lat="49.27587" lon="-0.50137">
        <ele>24</ele>
        <time>2021-01-24T21:12:40Z</time>
      </trkpt>
      <trkpt lat="49.27574" lon="-0.5021">
        <ele>22</ele>
        <time>2021-01-24T21:13:46Z</time>
      </trkpt>
      <trkpt lat="49.27567" lon="-0.50261">
        <ele>20</ele>
        <time>2021-01-24T21:14:31Z</time>
      </trkpt>
      <trkpt lat="49.27556" lon="-0.50323">
        <ele>19</ele>
        <time>2021-01-24T21:15:27Z</time>
      </trkpt>
      <trkpt lat="49.27507" lon="-0.50388">
        <ele>19</ele>
        <time>2021-01-24T21:16:54Z</time>
      </trkpt>
      <trkpt lat="49.27484" lon="-0.50431">
        <ele>18</ele>
        <time>2021-01-24T21:17:42Z</time>
      </trkpt>
      <trkpt lat="49.27441" lon="-0.50442">
        <ele>18</ele>
        <time>2021-01-24T21:18:40Z</time>
      </trkpt>
      <trkpt lat="49.27378" lon="-0.50409">
        <ele>22</ele>
        <time>2021-01-24T21:20:09Z</time>
      </trkpt>
      <trkpt lat="49.27335" lon="-0.50463">
        <ele>26</ele>
        <time>2021-01-24T21:21:23Z</time>
      </trkpt>
      <trkpt lat="49.27297" lon="-0.50471">
        <ele>26</ele>
        <time>2021-01-24T21:22:15Z</time>
      </trkpt>
      <trkpt lat="49.2722" lon="-0.50391">
        <ele>31</ele>
        <time>2021-01-24T21:24:19Z</time>
      </trkpt>
      <trkpt lat="49.27138" lon="-0.50324">
        <ele>38</ele>
        <time>2021-01-24T21:26:23Z</time>
      </trkpt>
      <trkpt lat="49.27076" lon="-0.50243">
        <ele>37</ele>
        <time>2021-01-24T21:28:11Z</time>
      </trkpt>
      <trkpt lat="49.26897" lon="-0.50193">
        <ele>40</ele>
        <time>2021-01-24T21:32:14Z</time>
      </trkpt>
      <trkpt lat="49.26676" lon="-0.50135">
        <ele>43</ele>
        <time>2021-01-24T21:37:13Z</time>
      </trkpt>
      <trkpt lat="49.26422" lon="-0.50207">
        <ele>45</ele>
        <time>2021-01-24T21:42:58Z</time>
      </trkpt>
      <trkpt lat="49.262" lon="-0.50272">
        <ele>48</ele>
        <time>2021-01-24T21:48:00Z</time>
      </trkpt>
      <trkpt lat="49.26049" lon="-0.5037">
        <ele>46</ele>
        <time>2021-01-24T21:51:39Z</time>
      </trkpt>
      <trkpt lat="49.25934" lon="-0.5042">
        <ele>49</ele>
        <time>2021-01-24T21:54:18Z</time>
      </trkpt>
      <trkpt lat="49.25918" lon="-0.50442">
        <ele>49</ele>
        <time>2021-01-24T21:54:47Z</time>
      </trkpt>
      <trkpt lat="49.25889" lon="-0.50489">
        <ele>47</ele>
        <time>2021-01-24T21:55:43Z</time>
      </trkpt>
      <trkpt lat="49.25866" lon="-0.50564">
        <ele>43</ele>
        <time>2021-01-24T21:56:55Z</time>
      </trkpt>
      <trkpt lat="49.25901" lon="-0.50651">
        <ele>35</ele>
        <time>2021-01-24T21:58:24Z</time>
      </trkpt>
      <trkpt lat="49.25913" lon="-0.50723">
        <ele>30</ele>
        <time>2021-01-24T21:59:29Z</time>
      </trkpt>
      <trkpt lat="49.25965" lon="-0.50842">
        <ele>22</ele>
        <time>2021-01-24T22:01:34Z</time>
      </trkpt>
      <trkpt lat="49.25922" lon="-0.50857">
        <ele>23</ele>
        <time>2021-01-24T22:02:33Z</time>
      </trkpt>
      <trkpt lat="49.25861" lon="-0.5086">
        <ele>24</ele>
        <time>2021-01-24T22:03:54Z</time>
      </trkpt>
      <trkpt lat="49.25804" lon="-0.50886">
        <ele>25</ele>
        <time>2021-01-24T22:05:13Z</time>
      </trkpt>
      <trkpt lat="49.25762" lon="-0.50932">
        <ele>26</ele>
        <time>2021-01-24T22:06:22Z</time>
      </trkpt>
      <trkpt lat="49.25713" lon="-0.50994">
        <ele>28</ele>
        <time>2021-01-24T22:07:47Z</time>
      </trkpt>
      <trkpt lat="49.25703" lon="-0.51048">
        <ele>29</ele>
        <time>2021-01-24T22:08:36Z</time>
      </trkpt>
      <trkpt lat="49.2568" lon="-0.51135">
        <ele>28</ele>
        <time>2021-01-24T22:09:58Z</time>
      </trkpt>
      <trkpt lat="49.25654" lon="-0.51207">
        <ele>28</ele>
        <time>2021-01-24T22:11:09Z</time>
      </trkpt>
      <trkpt lat="49.25623" lon="-0.51286">
        <ele>28</ele>
        <time>2021-01-24T22:12:30Z</time>
      </trkpt>
      <trkpt lat="49.25564" lon="-0.51394">
        <ele>26</ele>
        <time>2021-01-24T22:14:32Z</time>
      </trkpt>
      <trkpt lat="49.25475" lon="-0.51499">
        <ele>28</ele>
        <time>2021-01-24T22:17:02Z</time>
      </trkpt>
      <trkpt lat="49.25385" lon="-0.51604">
        <ele>28</ele>
        <time>2021-01-24T22:19:33Z</time>
      </trkpt>
      <trkpt lat="49.25315" lon="-0.51683">
        <ele>31</ele>
        <time>2021-01-24T22:21:29Z</time>
      </trkpt>
      <trkpt lat="49.25263" lon="-0.51694">
        <ele>34</ele>
        <time>2021-01-24T22:22:39Z</time>
      </trkpt>
      <trkpt lat="49.25204" lon="-0.5177">
        <ele>35</ele>
        <time>2021-01-24T22:24:22Z</time>
      </trkpt>
      <trkpt lat="49.25154" lon="-0.51817">
        <ele>33</ele>
        <time>2021-01-24T22:25:41Z</time>
      </trkpt>
      <trkpt lat="49.25118" lon="-0.51866">
        <ele>32</ele>
        <time>2021-01-24T22:26:45Z</time>
      </trkpt>
      <trkpt lat="49.25072" lon="-0.51911">
        <ele>32</ele>
        <time>2021-01-24T22:27:58Z</time>
      </trkpt>
      <trkpt lat="49.25031" lon="-0.5195">
        <ele>33</ele>
        <time>2021-01-24T22:29:02Z</time>
      </trkpt>
      <trkpt lat="49.24996" lon="-0.5201">
        <ele>31</ele>
        <time>2021-01-24T22:30:12Z</time>
      </trkpt>
      <trkpt lat="49.24942" lon="-0.52075">
        <ele>32</ele>
        <time>2021-01-24T22:31:44Z</time>
      </trkpt>
      <trkpt lat="49.24884" lon="-0.52115">
        <ele>34</ele>
        <time>2021-01-24T22:33:09Z</time>
      </trkpt>
      <trkpt lat="49.24841" lon="-0.52148">
        <ele>34</ele>
        <time>2021-01-24T22:34:13Z</time>
      </trkpt>
      <trkpt lat="49.24779" lon="-0.52175">
        <ele>33</ele>
        <time>2021-01-24T22:35:39Z</time>
      </trkpt>
      <trkpt lat="49.24746" lon="-0.52148">
        <ele>36</ele>
        <time>2021-01-24T22:36:29Z</time>
      </trkpt>
      <trkpt lat="49.24706" lon="-0.5212">
        <ele>36</ele>
        <time>2021-01-24T22:37:27Z</time>
      </trkpt>
      <trkpt lat="49.2468" lon="-0.52107">
        <ele>35</ele>
        <time>2021-01-24T22:38:04Z</time>
      </trkpt>
      <trkpt lat="49.24636" lon="-0.5206">
        <ele>35</ele>
        <time>2021-01-24T22:39:16Z</time>
      </trkpt>
      <trkpt lat="49.24596" lon="-0.52008">
        <ele>37</ele>
        <time>2021-01-24T22:40:26Z</time>
      </trkpt>
      <trkpt lat="49.2453" lon="-0.51969">
        <ele>37</ele>
        <time>2021-01-24T22:42:00Z</time>
      </trkpt>
      <trkpt lat="49.24491" lon="-0.51952">
        <ele>37</ele>
        <time>2021-01-24T22:42:54Z</time>
      </trkpt>
      <trkpt lat="49.24477" lon="-0.51982">
        <ele>35</ele>
        <time>2021-01-24T22:43:26Z</time>
      </trkpt>
      <trkpt lat="49.24463" lon="-0.51993">
        <ele>35</ele>
        <time>2021-01-24T22:43:47Z</time>
      </trkpt>
      <trkpt lat="49.24408" lon="-0.52006">
        <ele>34</ele>
        <time>2021-01-24T22:45:01Z</time>
      </trkpt>
      <trkpt lat="49.24344" lon="-0.52">
        <ele>33</ele>
        <time>2021-01-24T22:46:27Z</time>
      </trkpt>
      <trkpt lat="49.24285" lon="-0.51987">
        <ele>34</ele>
        <time>2021-01-24T22:47:47Z</time>
      </trkpt>
      <trkpt lat="49.24219" lon="-0.51982">
        <ele>34</ele>
        <time>2021-01-24T22:49:15Z</time>
      </trkpt>
      <trkpt lat="49.24176" lon="-0.51973">
        <ele>35</ele>
        <time>2021-01-24T22:50:13Z</time>
      </trkpt>
      <trkpt lat="49.24168" lon="-0.51922">
        <ele>36</ele>
        <time>2021-01-24T22:50:58Z</time>
      </trkpt>
      <trkpt lat="49.24177" lon="-0.51862">
        <ele>40</ele>
        <time>2021-01-24T22:51:52Z</time>
      </trkpt>
      <trkpt lat="49.24185" lon="-0.51802">
        <ele>44</ele>
        <time>2021-01-24T22:52:45Z</time>
      </trkpt>
      <trkpt lat="49.2417" lon="-0.5171">
        <ele>47</ele>
        <time>2021-01-24T22:54:08Z</time>
      </trkpt>
      <trkpt lat="49.24135" lon="-0.51615">
        <ele>50</ele>
        <time>2021-01-24T22:55:43Z</time>
      </trkpt>
      <trkpt lat="49.24093" lon="-0.51465">
        <ele>55</ele>
        <time>2021-01-24T22:58:05Z</time>
      </trkpt>
      <trkpt lat="49.24069" lon="-0.51394">
        <ele>55</ele>
        <time>2021-01-24T22:59:15Z</time>
      </trkpt>
      <trkpt lat="49.2404" lon="-0.51199">
        <ele>57</ele>
        <time>2021-01-24T23:02:09Z</time>
      </trkpt>
      <trkpt lat="49.24026" lon="-0.51077">
        <ele>58</ele>
        <time>2021-01-24T23:03:57Z</time>
      </trkpt>
      <trkpt lat="49.24014" lon="-0.50965">
        <ele>60</ele>
        <time>2021-01-24T23:05:36Z</time>
      </trkpt>
      <trkpt lat="49.24" lon="-0.50853">
        <ele>61</ele>
        <time>2021-01-24T23:07:15Z</time>
      </trkpt>
      <trkpt lat="49.23984" lon="-0.50745">
        <ele>60</ele>
        <time>2021-01-24T23:08:52Z</time>
      </trkpt>
      <trkpt lat="49.23965" lon="-0.50626">
        <ele>60</ele>
        <time>2021-01-24T23:10:38Z</time>
      </trkpt>
      <trkpt lat="49.23901" lon="-0.506">
        <ele>60</ele>
        <time>2021-01-24T23:12:07Z</time>
      </trkpt>
      <trkpt lat="49.23816" lon="-0.50572">
        <ele>59</ele>
        <time>2021-01-24T23:14:03Z</time>
      </trkpt>
      <trkpt lat="49.23771" lon="-0.50564">
        <ele>59</ele>
        <time>2021-01-24T23:15:03Z</time>
      </trkpt>
      <trkpt lat="49.23658" lon="-0.50651">
        <ele>58</ele>
        <time>2021-01-24T23:17:52Z</time>
      </trkpt>
      <trkpt lat="49.23512" lon="-0.50759">
        <ele>56</ele>
        <time>2021-01-24T23:21:28Z</time>
      </trkpt>
      <trkpt lat="49.23376" lon="-0.50846">
        <ele>56</ele>
        <time>2021-01-24T23:24:45Z</time>
      </trkpt>
      <trkpt lat="49.23314" lon="-0.50914">
        <ele>57</ele>
        <time>2021-01-24T23:26:27Z</time>
      </trkpt>
      <trkpt lat="49.23187" lon="-0.51008">
        <ele>58</ele>
        <time>2021-01-24T23:29:35Z</time>
      </trkpt>
      <trkpt lat="49.23048" lon="-0.51108">
        <ele>58</ele>
        <time>2021-01-24T23:33:00Z</time>
      </trkpt>
      <trkpt lat="49.23004" lon="-0.51159">
        <ele>58</ele>
        <time>2021-01-24T23:34:14Z</time>
      </trkpt>
      <trkpt lat="49.22987" lon="-0.51178">
        <ele>58</ele>
        <time>2021-01-24T23:34:42Z</time>
      </trkpt>
      <trkpt lat="49.22959" lon="-0.51223">
        <ele>59</ele>
        <time>2021-01-24T23:35:36Z</time>
      </trkpt>
      <trkpt lat="49.22934" lon="-0.51242">
        <ele>58</ele>
        <time>2021-01-24T23:36:13Z</time>
      </trkpt>
      <trkpt lat="49.22891" lon="-0.51274">
        <ele>58</ele>
        <time>2021-01-24T23:37:17Z</time>
      </trkpt>
      <trkpt lat="49.22858" lon="-0.51291">
        <ele>58</ele>
        <time>2021-01-24T23:38:03Z</time>
      </trkpt>
      <trkpt lat="49.22884" lon="-0.51358">
        <ele>59</ele>
        <time>2021-01-24T23:39:11Z</time>
      </trkpt>
      <trkpt lat="49.22918" lon="-0.51444">
        <ele>60</ele>
        <time>2021-01-24T23:40:39Z</time>
      </trkpt>
      <trkpt lat="49.2296" lon="-0.51535">
        <ele>60</ele>
        <time>2021-01-24T23:42:16Z</time>
      </trkpt>
      <trkpt lat="49.23011" lon="-0.51616">
        <ele>59</ele>
        <time>2021-01-24T23:43:54Z</time>
      </trkpt>
      <trkpt lat="49.23067" lon="-0.51679">
        <ele>58</ele>
        <time>2021-01-24T23:45:27Z</time>
      </trkpt>
      <trkpt lat="49.23098" lon="-0.51731">
        <ele>58</ele>
        <time>2021-01-24T23:46:28Z</time>
      </trkpt>
      <trkpt lat="49.23113" lon="-0.5178">
        <ele>57</ele>
        <time>2021-01-24T23:47:15Z</time>
      </trkpt>
      <trkpt lat="49.23119" lon="-0.51818">
        <ele>57</ele>
        <time>2021-01-24T23:47:49Z</time>
      </trkpt>
      <trkpt lat="49.23125" lon="-0.51858">
        <ele>56</ele>
        <time>2021-01-24T23:48:25Z</time>
      </trkpt>
      <trkpt lat="49.23125" lon="-0.51894">
        <ele>56</ele>
        <time>2021-01-24T23:48:57Z</time>
      </trkpt>
      <trkpt lat="49.23124" lon="-0.51953">
        <ele>55</ele>
        <time>2021-01-24T23:49:48Z</time>
      </trkpt>
      <trkpt lat="49.23123" lon="-0.51998">
        <ele>54</ele>
        <time>2021-01-24T23:50:27Z</time>
      </trkpt>
      <trkpt lat="49.23106" lon="-0.52018">
        <ele>54</ele>
        <time>2021-01-24T23:50:56Z</time>
      </trkpt>
      <trkpt lat="49.23088" lon="-0.52046">
        <ele>54</ele>
        <time>2021-01-24T23:51:30Z</time>
      </trkpt>
      <trkpt lat="49.23081" lon="-0.52072">
        <ele>53</ele>
        <time>2021-01-24T23:51:55Z</time>
      </trkpt>
      <trkpt lat="49.23101" lon="-0.52096">
        <ele>52</ele>
        <time>2021-01-24T23:52:29Z</time>
      </trkpt>
      <trkpt lat="49.2311" lon="-0.52107">
        <ele>52</ele>
        <time>2021-01-24T23:52:44Z</time>
      </trkpt>
      <trkpt lat="49.23108" lon="-0.5213">
        <ele>51</ele>
        <time>2021-01-24T23:53:04Z</time>
      </trkpt>
      <trkpt lat="49.23105" lon="-0.52162">
        <ele>50</ele>
        <time>2021-01-24T23:53:32Z</time>
      </trkpt>
      <trkpt lat="49.23105" lon="-0.52204">
        <ele>48</ele>
        <time>2021-01-24T23:54:09Z</time>
      </trkpt>
      <trkpt lat="49.23108" lon="-0.52292">
        <ele>45</ele>
        <time>2021-01-24T23:55:26Z</time>
      </trkpt>
      <trkpt lat="49.23163" lon="-0.52326">
        <ele>44</ele>
        <time>2021-01-24T23:56:45Z</time>
      </trkpt>
      <trkpt lat="49.23209" lon="-0.5235">
        <ele>46</ele>
        <time>2021-01-24T23:57:50Z</time>
      </trkpt>
      <trkpt lat="49.23263" lon="-0.52396">
        <ele>49</ele>
        <time>2021-01-24T23:59:12Z</time>
      </trkpt>
      <trkpt lat="49.23318" lon="-0.52447">
        <ele>52</ele>
        <time>2021-01-25T00:00:38Z</time>
      </trkpt>
      <trkpt lat="49.23384" lon="-0.52465">
        <ele>52</ele>
        <time>2021-01-25T00:02:07Z</time>
      </trkpt>
      <trkpt lat="49.23473" lon="-0.52514">
        <ele>52</ele>
        <time>2021-01-25T00:04:14Z</time>
      </trkpt>
      <trkpt lat="49.23552" lon="-0.52566">
        <ele>48</ele>
        <time>2021-01-25T00:06:08Z</time>
      </trkpt>
      <trkpt lat="49.23588" lon="-0.52609">
        <ele>45</ele>
        <time>2021-01-25T00:07:09Z</time>
      </trkpt>
      <trkpt lat="49.23632" lon="-0.52632">
        <ele>42</ele>
        <time>2021-01-25T00:08:11Z</time>
      </trkpt>
      <trkpt lat="49.23679" lon="-0.52697">
        <ele>38</ele>
        <time>2021-01-25T00:09:36Z</time>
      </trkpt>
      <trkpt lat="49.2373" lon="-0.52753">
        <ele>35</ele>
        <time>2021-01-25T00:11:00Z</time>
      </trkpt>
      <trkpt lat="49.23785" lon="-0.52811">
        <ele>33</ele>
        <time>2021-01-25T00:12:29Z</time>
      </trkpt>
      <trkpt lat="49.23894" lon="-0.52914">
        <ele>31</ele>
        <time>2021-01-25T00:15:20Z</time>
      </trkpt>
      <trkpt lat="49.23971" lon="-0.52978">
        <ele>36</ele>
        <time>2021-01-25T00:17:16Z</time>
      </trkpt>
      <trkpt lat="49.24035" lon="-0.53029">
        <ele>43</ele>
        <time>2021-01-25T00:18:53Z</time>
      </trkpt>
      <trkpt lat="49.24089" lon="-0.53072">
        <ele>48</ele>
        <time>2021-01-25T00:20:14Z</time>
      </trkpt>
      <trkpt lat="49.24133" lon="-0.53121">
        <ele>51</ele>
        <time>2021-01-25T00:21:27Z</time>
      </trkpt>
      <trkpt lat="49.24194" lon="-0.53214">
        <ele>54</ele>
        <time>2021-01-25T00:23:21Z</time>
      </trkpt>
      <trkpt lat="49.24224" lon="-0.53165">
        <ele>54</ele>
        <time>2021-01-25T00:24:20Z</time>
      </trkpt>
      <trkpt lat="49.24244" lon="-0.53105">
        <ele>52</ele>
        <time>2021-01-25T00:25:19Z</time>
      </trkpt>
      <trkpt lat="49.243" lon="-0.53121">
        <ele>53</ele>
        <time>2021-01-25T00:26:35Z</time>
      </trkpt>
      <trkpt lat="49.24301" lon="-0.5312">
        <ele>53</ele>
        <time>2021-01-25T00:26:36Z</time>
      </trkpt>
      <trkpt lat="49.24338" lon="-0.53162">
        <ele>55</ele>
        <time>2021-01-25T00:27:38Z</time>
      </trkpt>
      <trkpt lat="49.24383" lon="-0.53214">
        <ele>54</ele>
        <time>2021-01-25T00:28:53Z</time>
      </trkpt>
      <trkpt lat="49.24411" lon="-0.53241">
        <ele>53</ele>
        <time>2021-01-25T00:29:37Z</time>
      </trkpt>
      <trkpt lat="49.24428" lon="-0.53275">
        <ele>52</ele>
        <time>2021-01-25T00:30:14Z</time>
      </trkpt>
      <trkpt lat="49.2445" lon="-0.53315">
        <ele>49</ele>
        <time>2021-01-25T00:31:00Z</time>
      </trkpt>
      <trkpt lat="49.24496" lon="-0.53368">
        <ele>46</ele>
        <time>2021-01-25T00:32:17Z</time>
      </trkpt>
      <trkpt lat="49.24542" lon="-0.53418">
        <ele>43</ele>
        <time>2021-01-25T00:33:32Z</time>
      </trkpt>
      <trkpt lat="49.24597" lon="-0.53489">
        <ele>42</ele>
        <time>2021-01-25T00:35:08Z</time>
      </trkpt>
      <trkpt lat="49.24627" lon="-0.53502">
        <ele>44</ele>
        <time>2021-01-25T00:35:50Z</time>
      </trkpt>
      <trkpt lat="49.24651" lon="-0.53512">
        <ele>45</ele>
        <time>2021-01-25T00:36:23Z</time>
      </trkpt>
      <trkpt lat="49.24668" lon="-0.53541">
        <ele>45</ele>
        <time>2021-01-25T00:36:57Z</time>
      </trkpt>
      <trkpt lat="49.24677" lon="-0.53573">
        <ele>45</ele>
        <time>2021-01-25T00:37:27Z</time>
      </trkpt>
      <trkpt lat="49.24694" lon="-0.536">
        <ele>44</ele>
        <time>2021-01-25T00:38:00Z</time>
      </trkpt>
      <trkpt lat="49.24729" lon="-0.5365">
        <ele>43</ele>
        <time>2021-01-25T00:39:04Z</time>
      </trkpt>
      <trkpt lat="49.24764" lon="-0.53711">
        <ele>42</ele>
        <time>2021-01-25T00:40:14Z</time>
      </trkpt>
      <trkpt lat="49.24816" lon="-0.53798">
        <ele>41</ele>
        <time>2021-01-25T00:41:57Z</time>
      </trkpt>
      <trkpt lat="49.24857" lon="-0.53765">
        <ele>42</ele>
        <time>2021-01-25T00:42:59Z</time>
      </trkpt>
      <trkpt lat="49.24877" lon="-0.53742">
        <ele>43</ele>
        <time>2021-01-25T00:43:32Z</time>
      </trkpt>
      <trkpt lat="49.249" lon="-0.53705">
        <ele>44</ele>
        <time>2021-01-25T00:44:17Z</time>
      </trkpt>
      <trkpt lat="49.24929" lon="-0.53658">
        <ele>43</ele>
        <time>2021-01-25T00:45:13Z</time>
      </trkpt>
      <trkpt lat="49.24964" lon="-0.53615">
        <ele>43</ele>
        <time>2021-01-25T00:46:13Z</time>
      </trkpt>
      <trkpt lat="49.24989" lon="-0.5357">
        <ele>43</ele>
        <time>2021-01-25T00:47:05Z</time>
      </trkpt>
      <trkpt lat="49.24992" lon="-0.53535">
        <ele>43</ele>
        <time>2021-01-25T00:47:35Z</time>
      </trkpt>
      <trkpt lat="49.25018" lon="-0.53508">
        <ele>43</ele>
        <time>2021-01-25T00:48:17Z</time>
      </trkpt>
      <trkpt lat="49.25033" lon="-0.53494">
        <ele>43</ele>
        <time>2021-01-25T00:48:41Z</time>
      </trkpt>
      <trkpt lat="49.25044" lon="-0.53485">
        <ele>43</ele>
        <time>2021-01-25T00:48:57Z</time>
      </trkpt>
      <trkpt lat="49.25066" lon="-0.53477">
        <ele>43</ele>
        <time>2021-01-25T00:49:27Z</time>
      </trkpt>
      <trkpt lat="49.25086" lon="-0.53464">
        <ele>43</ele>
        <time>2021-01-25T00:49:56Z</time>
      </trkpt>
      <trkpt lat="49.2513" lon="-0.53434">
        <ele>43</ele>
        <time>2021-01-25T00:51:01Z</time>
      </trkpt>
      <trkpt lat="49.2523" lon="-0.53368">
        <ele>44</ele>
        <time>2021-01-25T00:53:26Z</time>
      </trkpt>
      <trkpt lat="49.25325" lon="-0.53319">
        <ele>45</ele>
        <time>2021-01-25T00:55:40Z</time>
      </trkpt>
      <trkpt lat="49.25499" lon="-0.53263">
        <ele>54</ele>
        <time>2021-01-25T00:59:37Z</time>
      </trkpt>
      <trkpt lat="49.25678" lon="-0.53141">
        <ele>57</ele>
        <time>2021-01-25T01:03:58Z</time>
      </trkpt>
      <trkpt lat="49.2586" lon="-0.53019">
        <ele>57</ele>
        <time>2021-01-25T01:08:24Z</time>
      </trkpt>
      <trkpt lat="49.25823" lon="-0.52899">
        <ele>55</ele>
        <time>2021-01-25T01:10:19Z</time>
      </trkpt>
      <trkpt lat="49.25795" lon="-0.5275">
        <ele>53</ele>
        <time>2021-01-25T01:12:34Z</time>
      </trkpt>
      <trkpt lat="49.25768" lon="-0.52645">
        <ele>47</ele>
        <time>2021-01-25T01:14:13Z</time>
      </trkpt>
      <trkpt lat="49.25708" lon="-0.52508">
        <ele>38</ele>
        <time>2021-01-25T01:16:36Z</time>
      </trkpt>
      <trkpt lat="49.25748" lon="-0.52454">
        <ele>38</ele>
        <time>2021-01-25T01:17:47Z</time>
      </trkpt>
      <trkpt lat="49.25817" lon="-0.52396">
        <ele>41</ele>
        <time>2021-01-25T01:19:32Z</time>
      </trkpt>
      <trkpt lat="49.25876" lon="-0.52336">
        <ele>43</ele>
        <time>2021-01-25T01:21:07Z</time>
      </trkpt>
      <trkpt lat="49.2595" lon="-0.52227">
        <ele>43</ele>
        <time>2021-01-25T01:23:24Z</time>
      </trkpt>
      <trkpt lat="49.26041" lon="-0.52098">
        <ele>42</ele>
        <time>2021-01-25T01:26:09Z</time>
      </trkpt>
      <trkpt lat="49.2615" lon="-0.51982">
        <ele>44</ele>
        <time>2021-01-25T01:29:06Z</time>
      </trkpt>
      <trkpt lat="49.26208" lon="-0.51932">
        <ele>43</ele>
        <time>2021-01-25T01:30:35Z</time>
      </trkpt>
      <trkpt lat="49.26265" lon="-0.51901">
        <ele>43</ele>
        <time>2021-01-25T01:31:56Z</time>
      </trkpt>
      <trkpt lat="49.2637" lon="-0.5186">
        <ele>42</ele>
        <time>2021-01-25T01:34:21Z</time>
      </trkpt>
      <trkpt lat="49.26468" lon="-0.51841">
        <ele>41</ele>
        <time>2021-01-25T01:36:32Z</time>
      </trkpt>
      <trkpt lat="49.26556" lon="-0.51828">
        <ele>39</ele>
        <time>2021-01-25T01:38:30Z</time>
      </trkpt>
      <trkpt lat="49.26587" lon="-0.51819">
        <ele>38</ele>
        <time>2021-01-25T01:39:12Z</time>
      </trkpt>
      <trkpt lat="49.26631" lon="-0.51797">
        <ele>36</ele>
        <time>2021-01-25T01:40:14Z</time>
      </trkpt>
      <trkpt lat="49.26663" lon="-0.51797">
        <ele>35</ele>
        <time>2021-01-25T01:40:57Z</time>
      </trkpt>
      <trkpt lat="49.26684" lon="-0.51816">
        <ele>33</ele>
        <time>2021-01-25T01:41:29Z</time>
      </trkpt>
      <trkpt lat="49.26691" lon="-0.51873">
        <ele>32</ele>
        <time>2021-01-25T01:42:20Z</time>
      </trkpt>
      <trkpt lat="49.26686" lon="-0.51943">
        <ele>33</ele>
        <time>2021-01-25T01:43:21Z</time>
      </trkpt>
      <trkpt lat="49.26678" lon="-0.5198">
        <ele>33</ele>
        <time>2021-01-25T01:43:55Z</time>
      </trkpt>
      <trkpt lat="49.26662" lon="-0.52065">
        <ele>35</ele>
        <time>2021-01-25T01:45:12Z</time>
      </trkpt>
      <trkpt lat="49.26666" lon="-0.52105">
        <ele>36</ele>
        <time>2021-01-25T01:45:47Z</time>
      </trkpt>
      <trkpt lat="49.26651" lon="-0.5228">
        <ele>40</ele>
        <time>2021-01-25T01:48:21Z</time>
      </trkpt>
      <trkpt lat="49.26632" lon="-0.52511">
        <ele>42</ele>
        <time>2021-01-25T01:51:44Z</time>
      </trkpt>
      <trkpt lat="49.26621" lon="-0.5263">
        <ele>42</ele>
        <time>2021-01-25T01:53:29Z</time>
      </trkpt>
      <trkpt lat="49.26623" lon="-0.52677">
        <ele>41</ele>
        <time>2021-01-25T01:54:10Z</time>
      </trkpt>
      <trkpt lat="49.2665" lon="-0.5267">
        <ele>43</ele>
        <time>2021-01-25T01:54:46Z</time>
      </trkpt>
      <trkpt lat="49.2668" lon="-0.52665">
        <ele>43</ele>
        <time>2021-01-25T01:55:26Z</time>
      </trkpt>
      <trkpt lat="49.26725" lon="-0.52658">
        <ele>42</ele>
        <time>2021-01-25T01:56:27Z</time>
      </trkpt>
      <trkpt lat="49.26775" lon="-0.52644">
        <ele>39</ele>
        <time>2021-01-25T01:57:35Z</time>
      </trkpt>
      <trkpt lat="49.26803" lon="-0.52554">
        <ele>37</ele>
        <time>2021-01-25T01:59:01Z</time>
      </trkpt>
      <trkpt lat="49.2683" lon="-0.52466">
        <ele>37</ele>
        <time>2021-01-25T02:00:26Z</time>
      </trkpt>
      <trkpt lat="49.26837" lon="-0.52431">
        <ele>38</ele>
        <time>2021-01-25T02:00:58Z</time>
      </trkpt>
      <trkpt lat="49.26851" lon="-0.52405">
        <ele>38</ele>
        <time>2021-01-25T02:01:27Z</time>
      </trkpt>
      <trkpt lat="49.26888" lon="-0.52423">
        <ele>36</ele>
        <time>2021-01-25T02:02:19Z</time>
      </trkpt>
      <trkpt lat="49.26902" lon="-0.5243">
        <ele>35</ele>
        <time>2021-01-25T02:02:39Z</time>
      </trkpt>
      <trkpt lat="49.26914" lon="-0.52423">
        <ele>34</ele>
        <time>2021-01-25T02:02:56Z</time>
      </trkpt>
      <trkpt lat="49.26929" lon="-0.52384">
        <ele>35</ele>
        <time>2021-01-25T02:03:35Z</time>
      </trkpt>
      <trkpt lat="49.26938" lon="-0.52355">
        <ele>35</ele>
        <time>2021-01-25T02:04:03Z</time>
      </trkpt>
      <trkpt lat="49.26946" lon="-0.52333">
        <ele>35</ele>
        <time>2021-01-25T02:04:25Z</time>
      </trkpt>
      <trkpt lat="49.2695" lon="-0.52312">
        <ele>36</ele>
        <time>2021-01-25T02:04:44Z</time>
      </trkpt>
      <trkpt lat="49.26956" lon="-0.52288">
        <ele>36</ele>
        <time>2021-01-25T02:05:07Z</time>
      </trkpt>
      <trkpt lat="49.26961" lon="-0.52267">
        <ele>36</ele>
        <time>2021-01-25T02:05:26Z</time>
      </trkpt>
      <trkpt lat="49.26971" lon="-0.52249">
        <ele>37</ele>
        <time>2021-01-25T02:05:47Z</time>
      </trkpt>
      <trkpt lat="49.26987" lon="-0.52219">
        <ele>37</ele>
        <time>2021-01-25T02:06:20Z</time>
      </trkpt>
      <trkpt lat="49.27015" lon="-0.52248">
        <ele>38</ele>
        <time>2021-01-25T02:07:06Z</time>
      </trkpt>
      <trkpt lat="49.27044" lon="-0.5229">
        <ele>39</ele>
        <time>2021-01-25T02:07:59Z</time>
      </trkpt>
      <trkpt lat="49.27069" lon="-0.5233">
        <ele>39</ele>
        <time>2021-01-25T02:08:47Z</time>
      </trkpt>
      <trkpt lat="49.27062" lon="-0.52365">
        <ele>39</ele>
        <time>2021-01-25T02:09:19Z</time>
      </trkpt>
      <trkpt lat="49.2705" lon="-0.52474">
        <ele>41</ele>
        <time>2021-01-25T02:10:55Z</time>
      </trkpt>
      <trkpt lat="49.27043" lon="-0.52511">
        <ele>42</ele>
        <time>2021-01-25T02:11:29Z</time>
      </trkpt>
      <trkpt lat="49.27029" lon="-0.52581">
        <ele>43</ele>
        <time>2021-01-25T02:12:32Z</time>
      </trkpt>
      <trkpt lat="49.27022" lon="-0.52625">
        <ele>44</ele>
        <time>2021-01-25T02:13:12Z</time>
      </trkpt>
      <trkpt lat="49.27015" lon="-0.52668">
        <ele>46</ele>
        <time>2021-01-25T02:13:50Z</time>
      </trkpt>
      <trkpt lat="49.27003" lon="-0.52727">
        <ele>49</ele>
        <time>2021-01-25T02:14:44Z</time>
      </trkpt>
      <trkpt lat="49.26997" lon="-0.52765">
        <ele>50</ele>
        <time>2021-01-25T02:15:18Z</time>
      </trkpt>
      <trkpt lat="49.26977" lon="-0.52875">
        <ele>48</ele>
        <time>2021-01-25T02:16:58Z</time>
      </trkpt>
      <trkpt lat="49.26952" lon="-0.52969">
        <ele>47</ele>
        <time>2021-01-25T02:18:26Z</time>
      </trkpt>
      <trkpt lat="49.26937" lon="-0.53076">
        <ele>47</ele>
        <time>2021-01-25T02:20:01Z</time>
      </trkpt>
      <trkpt lat="49.26894" lon="-0.53268">
        <ele>49</ele>
        <time>2021-01-25T02:22:58Z</time>
      </trkpt>
      <trkpt lat="49.26869" lon="-0.53411">
        <ele>50</ele>
        <time>2021-01-25T02:25:07Z</time>
      </trkpt>
      <trkpt lat="49.26855" lon="-0.53559">
        <ele>49</ele>
        <time>2021-01-25T02:27:17Z</time>
      </trkpt>
      <trkpt lat="49.26849" lon="-0.53707">
        <ele>49</ele>
        <time>2021-01-25T02:29:26Z</time>
      </trkpt>
      <trkpt lat="49.26807" lon="-0.53814">
        <ele>51</ele>
        <time>2021-01-25T02:31:15Z</time>
      </trkpt>
      <trkpt lat="49.26769" lon="-0.53924">
        <ele>51</ele>
        <time>2021-01-25T02:33:04Z</time>
      </trkpt>
      <trkpt lat="49.26752" lon="-0.5401">
        <ele>51</ele>
        <time>2021-01-25T02:34:22Z</time>
      </trkpt>
      <trkpt lat="49.26814" lon="-0.54035">
        <ele>49</ele>
        <time>2021-01-25T02:35:47Z</time>
      </trkpt>
      <trkpt lat="49.26857" lon="-0.54043">
        <ele>48</ele>
        <time>2021-01-25T02:36:45Z</time>
      </trkpt>
      <trkpt lat="49.26992" lon="-0.54026">
        <ele>49</ele>
        <time>2021-01-25T02:39:46Z</time>
      </trkpt>
      <trkpt lat="49.27142" lon="-0.54018">
        <ele>48</ele>
        <time>2021-01-25T02:43:06Z</time>
      </trkpt>
      <trkpt lat="49.27292" lon="-0.54031">
        <ele>47</ele>
        <time>2021-01-25T02:46:27Z</time>
      </trkpt>
      <trkpt lat="49.27403" lon="-0.54043">
        <ele>45</ele>
        <time>2021-01-25T02:48:55Z</time>
      </trkpt>
      <trkpt lat="49.27478" lon="-0.54092">
        <ele>44</ele>
        <time>2021-01-25T02:50:44Z</time>
      </trkpt>
      <trkpt lat="49.27546" lon="-0.54153">
        <ele>44</ele>
        <time>2021-01-25T02:52:29Z</time>
      </trkpt>
      <trkpt lat="49.27585" lon="-0.54202">
        <ele>44</ele>
        <time>2021-01-25T02:53:36Z</time>
      </trkpt>
      <trkpt lat="49.27601" lon="-0.54243">
        <ele>43</ele>
        <time>2021-01-25T02:54:18Z</time>
      </trkpt>
      <trkpt lat="49.27611" lon="-0.54306">
        <ele>42</ele>
        <time>2021-01-25T02:55:14Z</time>
      </trkpt>
      <trkpt lat="49.2763" lon="-0.54342">
        <ele>42</ele>
        <time>2021-01-25T02:55:55Z</time>
      </trkpt>
      <trkpt lat="49.27651" lon="-0.54406">
        <ele>41</ele>
        <time>2021-01-25T02:56:57Z</time>
      </trkpt>
      <trkpt lat="49.27689" lon="-0.5447">
        <ele>40</ele>
        <time>2021-01-25T02:58:12Z</time>
      </trkpt>
      <trkpt lat="49.27713" lon="-0.54505">
        <ele>39</ele>
        <time>2021-01-25T02:58:57Z</time>
      </trkpt>
      <trkpt lat="49.27708" lon="-0.54541">
        <ele>38</ele>
        <time>2021-01-25T02:59:29Z</time>
      </trkpt>
      <trkpt lat="49.27736" lon="-0.54579">
        <ele>37</ele>
        <time>2021-01-25T03:00:19Z</time>
      </trkpt>
      <trkpt lat="49.27773" lon="-0.54625">
        <ele>37</ele>
        <time>2021-01-25T03:01:22Z</time>
      </trkpt>
      <trkpt lat="49.27801" lon="-0.54664">
        <ele>36</ele>
        <time>2021-01-25T03:02:13Z</time>
      </trkpt>
      <trkpt lat="49.27896" lon="-0.54582">
        <ele>37</ele>
        <time>2021-01-25T03:04:38Z</time>
      </trkpt>
      <trkpt lat="49.28054" lon="-0.54462">
        <ele>36</ele>
        <time>2021-01-25T03:08:33Z</time>
      </trkpt>
      <trkpt lat="49.28131" lon="-0.54398">
        <ele>35</ele>
        <time>2021-01-25T03:10:30Z</time>
      </trkpt>
      <trkpt lat="49.28257" lon="-0.54276">
        <ele>34</ele>
        <time>2021-01-25T03:13:49Z</time>
      </trkpt>
      <trkpt lat="49.2838" lon="-0.54138">
        <ele>30</ele>
        <time>2021-01-25T03:17:13Z</time>
      </trkpt>
      <trkpt lat="49.28467" lon="-0.54013">
        <ele>29</ele>
        <time>2021-01-25T03:19:52Z</time>
      </trkpt>
      <trkpt lat="49.28506" lon="-0.53947">
        <ele>30</ele>
        <time>2021-01-25T03:21:09Z</time>
      </trkpt>
      <trkpt lat="49.28554" lon="-0.5386">
        <ele>30</ele>
        <time>2021-01-25T03:22:48Z</time>
      </trkpt>
      <trkpt lat="49.28576" lon="-0.53822">
        <ele>30</ele>
        <time>2021-01-25T03:23:33Z</time>
      </trkpt>
      <trkpt lat="49.28594" lon="-0.53784">
        <ele>30</ele>
        <time>2021-01-25T03:24:14Z</time>
      </trkpt>
      <trkpt lat="49.28618" lon="-0.53813">
        <ele>30</ele>
        <time>2021-01-25T03:24:54Z</time>
      </trkpt>
      <trkpt lat="49.28656" lon="-0.53869">
        <ele>28</ele>
        <time>2021-01-25T03:26:05Z</time>
      </trkpt>
    </trkseg>
  </trk>
</gpx>